Ridge, Maryland
Current Conditions -  °F | °C
As of 2:53 AM on Saturday 29 Nov 2014 (Local Time) from KNUI Reporting Station
Overcast Overcast  
Wind Chill: 29°   Ceiling: 12000
Heat Index: 29°   Visibility: 10mi
Dew Point: 23°   Wind: 0mph
Humidity: 78%   Direction: NA
Pressure: 30.32"   Gusts: NA
Location:  38.12°N, 76.37°W
Report Text: KNUI 290753Z AUTO 00000KT 10SM OVC120 M02/M05 A3032 RMK AO2 SLP266 T10171050
Loading
Personal Weather Stations






























Interactive Weather Map New forecast layout! Learn more

10-Day Weather Forecast

Advertisements
Track Severe Weather on mobile